sensor_id;sensor_type;location;lat;lon;timestamp;P1;durP1;ratioP1;P2;durP2;ratioP2
34204;SDS011;20471;49.680;20.074;2022-09-03T00:02:21;11.65;;;6.80;;
34204;SDS011;20471;49.680;20.074;2022-09-03T00:13:53;11.20;;;6.28;;
34204;SDS011;20471;49.680;20.074;2022-09-03T00:16:42;8.60;;;5.83;;
34204;SDS011;20471;49.680;20.074;2022-09-03T00:19:17;10.40;;;6.20;;
34204;SDS011;20471;49.680;20.074;2022-09-03T00:21:51;7.92;;;5.47;;
34204;SDS011;20471;49.680;20.074;2022-09-03T00:24:38;8.88;;;5.75;;
34204;SDS011;20471;49.680;20.074;2022-09-03T00:27:10;7.78;;;5.72;;
34204;SDS011;20471;49.680;20.074;2022-09-03T00:29:51;12.95;;;6.40;;
34204;SDS011;20471;49.680;20.074;2022-09-03T00:38:03;12.50;;;6.85;;
34204;SDS011;20471;49.680;20.074;2022-09-03T00:40:35;9.33;;;6.15;;
34204;SDS011;20471;49.680;20.074;2022-09-03T00:46:25;9.53;;;6.03;;
34204;SDS011;20471;49.680;20.074;2022-09-03T00:49:10;9.78;;;6.45;;
34204;SDS011;20471;49.680;20.074;2022-09-03T01:00:18;11.48;;;6.12;;
34204;SDS011;20471;49.680;20.074;2022-09-03T01:02:50;11.80;;;6.55;;
34204;SDS011;20471;49.680;20.074;2022-09-03T01:11:43;10.98;;;6.00;;
34204;SDS011;20471;49.680;20.074;2022-09-03T01:26:13;11.25;;;6.78;;
34204;SDS011;20471;49.680;20.074;2022-09-03T01:29:20;8.05;;;5.65;;
34204;SDS011;20471;49.680;20.074;2022-09-03T01:32:13;9.38;;;6.10;;
34204;SDS011;20471;49.680;20.074;2022-09-03T01:46:49;10.35;;;6.10;;
34204;SDS011;20471;49.680;20.074;2022-09-03T01:49:37;9.30;;;5.50;;
34204;SDS011;20471;49.680;20.074;2022-09-03T01:52:13;10.25;;;6.05;;
34204;SDS011;20471;49.680;20.074;2022-09-03T01:55:04;8.53;;;5.60;;
34204;SDS011;20471;49.680;20.074;2022-09-03T02:00:22;9.53;;;6.40;;
34204;SDS011;20471;49.680;20.074;2022-09-03T02:02:50;13.03;;;6.22;;
34204;SDS011;20471;49.680;20.074;2022-09-03T02:07:52;8.95;;;6.22;;
34204;SDS011;20471;49.680;20.074;2022-09-03T02:13:09;9.18;;;6.05;;
34204;SDS011;20471;49.680;20.074;2022-09-03T02:15:41;12.33;;;6.70;;
34204;SDS011;20471;49.680;20.074;2022-09-03T02:18:12;9.30;;;6.40;;
34204;SDS011;20471;49.680;20.074;2022-09-03T02:20:47;12.55;;;6.30;;
34204;SDS011;20471;49.680;20.074;2022-09-03T02:23:18;13.90;;;6.72;;
34204;SDS011;20471;49.680;20.074;2022-09-03T02:25:47;13.95;;;7.30;;
34204;SDS011;20471;49.680;20.074;2022-09-03T02:28:17;11.53;;;7.45;;
34204;SDS011;20471;49.680;20.074;2022-09-03T02:30:44;13.28;;;7.58;;
34204;SDS011;20471;49.680;20.074;2022-09-03T02:33:10;10.15;;;7.30;;
34204;SDS011;20471;49.680;20.074;2022-09-03T02:35:38;19.82;;;7.58;;
34204;SDS011;20471;49.680;20.074;2022-09-03T02:38:15;12.93;;;7.37;;
34204;SDS011;20471;49.680;20.074;2022-09-03T02:40:46;14.58;;;8.58;;
34204;SDS011;20471;49.680;20.074;2022-09-03T02:43:15;12.45;;;8.10;;
34204;SDS011;20471;49.680;20.074;2022-09-03T02:45:47;12.37;;;7.90;;
34204;SDS011;20471;49.680;20.074;2022-09-03T02:48:17;12.35;;;8.05;;
34204;SDS011;20471;49.680;20.074;2022-09-03T02:50:48;11.33;;;7.30;;
34204;SDS011;20471;49.680;20.074;2022-09-03T02:53:15;12.23;;;7.62;;
34204;SDS011;20471;49.680;20.074;2022-09-03T02:55:42;10.53;;;6.97;;
34204;SDS011;20471;49.680;20.074;2022-09-03T02:58:08;11.08;;;7.37;;
34204;SDS011;20471;49.680;20.074;2022-09-03T03:00:35;11.85;;;7.22;;
34204;SDS011;20471;49.680;20.074;2022-09-03T03:03:02;11.65;;;7.90;;
34204;SDS011;20471;49.680;20.074;2022-09-03T03:08:21;15.78;;;8.13;;
34204;SDS011;20471;49.680;20.074;2022-09-03T03:10:52;12.40;;;6.80;;
34204;SDS011;20471;49.680;20.074;2022-09-03T03:13:23;12.03;;;7.37;;
34204;SDS011;20471;49.680;20.074;2022-09-03T03:16:00;10.93;;;7.40;;
34204;SDS011;20471;49.680;20.074;2022-09-03T03:18:31;11.93;;;7.20;;
34204;SDS011;20471;49.680;20.074;2022-09-03T03:21:03;11.22;;;6.92;;
34204;SDS011;20471;49.680;20.074;2022-09-03T03:23:32;13.75;;;6.62;;
34204;SDS011;20471;49.680;20.074;2022-09-03T03:26:00;13.40;;;7.78;;
34204;SDS011;20471;49.680;20.074;2022-09-03T03:28:31;12.37;;;7.03;;
34204;SDS011;20471;49.680;20.074;2022-09-03T03:31:05;11.65;;;7.30;;
34204;SDS011;20471;49.680;20.074;2022-09-03T03:33:37;13.78;;;7.70;;
34204;SDS011;20471;49.680;20.074;2022-09-03T03:36:05;14.93;;;7.53;;
34204;SDS011;20471;49.680;20.074;2022-09-03T03:38:34;12.00;;;7.08;;
34204;SDS011;20471;49.680;20.074;2022-09-03T03:41:08;12.55;;;7.65;;
34204;SDS011;20471;49.680;20.074;2022-09-03T03:43:37;11.73;;;7.50;;
34204;SDS011;20471;49.680;20.074;2022-09-03T03:46:06;10.88;;;7.37;;
34204;SDS011;20471;49.680;20.074;2022-09-03T03:48:32;12.10;;;7.50;;
34204;SDS011;20471;49.680;20.074;2022-09-03T03:51:00;10.18;;;6.85;;
34204;SDS011;20471;49.680;20.074;2022-09-03T03:53:33;14.05;;;7.05;;
34204;SDS011;20471;49.680;20.074;2022-09-03T03:56:04;9.00;;;6.95;;
34204;SDS011;20471;49.680;20.074;2022-09-03T03:58:34;12.53;;;7.00;;
34204;SDS011;20471;49.680;20.074;2022-09-03T04:01:05;11.57;;;7.12;;
34204;SDS011;20471;49.680;20.074;2022-09-03T04:03:34;12.75;;;7.95;;
34204;SDS011;20471;49.680;20.074;2022-09-03T04:06:01;11.68;;;7.83;;
34204;SDS011;20471;49.680;20.074;2022-09-03T04:08:29;12.20;;;7.22;;
34204;SDS011;20471;49.680;20.074;2022-09-03T04:11:02;14.33;;;7.30;;
34204;SDS011;20471;49.680;20.074;2022-09-03T04:13:32;11.40;;;7.50;;
34204;SDS011;20471;49.680;20.074;2022-09-03T04:16:04;11.12;;;6.92;;
34204;SDS011;20471;49.680;20.074;2022-09-03T04:18:35;13.68;;;7.62;;
34204;SDS011;20471;49.680;20.074;2022-09-03T04:21:07;11.78;;;7.45;;
34204;SDS011;20471;49.680;20.074;2022-09-03T04:23:38;13.22;;;7.62;;
34204;SDS011;20471;49.680;20.074;2022-09-03T04:26:07;15.78;;;7.95;;
34204;SDS011;20471;49.680;20.074;2022-09-03T04:28:36;12.78;;;7.25;;
34204;SDS011;20471;49.680;20.074;2022-09-03T04:31:03;13.93;;;8.33;;
34204;SDS011;20471;49.680;20.074;2022-09-03T04:33:34;14.63;;;7.90;;
34204;SDS011;20471;49.680;20.074;2022-09-03T04:36:09;16.73;;;7.97;;
34204;SDS011;20471;49.680;20.074;2022-09-03T04:38:46;12.60;;;8.18;;
34204;SDS011;20471;49.680;20.074;2022-09-03T04:41:18;15.90;;;8.25;;
34204;SDS011;20471;49.680;20.074;2022-09-03T04:43:50;11.50;;;8.15;;
34204;SDS011;20471;49.680;20.074;2022-09-03T04:46:18;14.87;;;8.30;;
34204;SDS011;20471;49.680;20.074;2022-09-03T04:48:47;13.22;;;8.48;;
34204;SDS011;20471;49.680;20.074;2022-09-03T04:51:17;12.82;;;8.40;;
34204;SDS011;20471;49.680;20.074;2022-09-03T04:53:47;11.55;;;7.87;;
34204;SDS011;20471;49.680;20.074;2022-09-03T04:56:21;15.88;;;8.08;;
34204;SDS011;20471;49.680;20.074;2022-09-03T04:58:55;14.50;;;7.60;;
34204;SDS011;20471;49.680;20.074;2022-09-03T05:01:25;13.30;;;8.20;;
34204;SDS011;20471;49.680;20.074;2022-09-03T05:03:54;12.60;;;7.55;;
34204;SDS011;20471;49.680;20.074;2022-09-03T05:06:22;12.85;;;8.23;;
34204;SDS011;20471;49.680;20.074;2022-09-03T05:08:50;11.70;;;8.20;;
34204;SDS011;20471;49.680;20.074;2022-09-03T05:11:19;12.80;;;7.87;;
34204;SDS011;20471;49.680;20.074;2022-09-03T05:13:52;14.07;;;8.25;;
34204;SDS011;20471;49.680;20.074;2022-09-03T05:16:17;15.25;;;8.70;;
34204;SDS011;20471;49.680;20.074;2022-09-03T05:18:44;15.13;;;8.20;;
34204;SDS011;20471;49.680;20.074;2022-09-03T05:21:16;12.07;;;7.70;;
34204;SDS011;20471;49.680;20.074;2022-09-03T05:23:44;13.95;;;8.08;;
34204;SDS011;20471;49.680;20.074;2022-09-03T05:26:14;15.48;;;8.58;;
34204;SDS011;20471;49.680;20.074;2022-09-03T05:28:44;10.40;;;7.67;;
34204;SDS011;20471;49.680;20.074;2022-09-03T05:31:16;14.15;;;8.38;;
34204;SDS011;20471;49.680;20.074;2022-09-03T05:33:46;11.57;;;8.18;;
34204;SDS011;20471;49.680;20.074;2022-09-03T05:36:18;12.58;;;8.18;;
34204;SDS011;20471;49.680;20.074;2022-09-03T05:38:48;13.25;;;8.00;;
34204;SDS011;20471;49.680;20.074;2022-09-03T05:41:16;13.05;;;8.53;;
34204;SDS011;20471;49.680;20.074;2022-09-03T05:43:43;12.05;;;7.78;;
34204;SDS011;20471;49.680;20.074;2022-09-03T05:46:11;10.32;;;7.67;;
34204;SDS011;20471;49.680;20.074;2022-09-03T05:48:41;12.88;;;7.78;;
34204;SDS011;20471;49.680;20.074;2022-09-03T05:51:15;12.37;;;7.53;;
34204;SDS011;20471;49.680;20.074;2022-09-03T05:53:43;11.22;;;7.62;;
34204;SDS011;20471;49.680;20.074;2022-09-03T05:56:12;13.93;;;8.18;;
34204;SDS011;20471;49.680;20.074;2022-09-03T05:58:44;12.73;;;8.20;;
34204;SDS011;20471;49.680;20.074;2022-09-03T06:03:56;12.88;;;8.25;;
34204;SDS011;20471;49.680;20.074;2022-09-03T06:06:27;13.95;;;8.48;;
34204;SDS011;20471;49.680;20.074;2022-09-03T06:08:58;12.25;;;8.23;;
34204;SDS011;20471;49.680;20.074;2022-09-03T06:11:28;14.58;;;8.45;;
34204;SDS011;20471;49.680;20.074;2022-09-03T06:13:57;11.95;;;8.23;;
34204;SDS011;20471;49.680;20.074;2022-09-03T06:16:27;11.05;;;8.38;;
34204;SDS011;20471;49.680;20.074;2022-09-03T06:18:55;14.80;;;8.98;;
34204;SDS011;20471;49.680;20.074;2022-09-03T06:21:22;13.95;;;8.50;;
34204;SDS011;20471;49.680;20.074;2022-09-03T06:23:49;13.20;;;8.95;;
34204;SDS011;20471;49.680;20.074;2022-09-03T06:26:20;16.30;;;8.50;;
34204;SDS011;20471;49.680;20.074;2022-09-03T06:28:47;12.28;;;8.13;;
34204;SDS011;20471;49.680;20.074;2022-09-03T06:31:15;13.72;;;9.03;;
34204;SDS011;20471;49.680;20.074;2022-09-03T06:33:44;16.75;;;9.48;;
34204;SDS011;20471;49.680;20.074;2022-09-03T06:36:12;12.45;;;8.23;;
34204;SDS011;20471;49.680;20.074;2022-09-03T06:38:42;10.78;;;7.97;;
34204;SDS011;20471;49.680;20.074;2022-09-03T06:41:11;13.40;;;9.73;;
34204;SDS011;20471;49.680;20.074;2022-09-03T06:43:44;15.13;;;9.30;;
34204;SDS011;20471;49.680;20.074;2022-09-03T06:46:15;13.53;;;9.03;;
34204;SDS011;20471;49.680;20.074;2022-09-03T06:48:44;15.00;;;9.03;;
34204;SDS011;20471;49.680;20.074;2022-09-03T06:51:13;15.72;;;9.93;;
34204;SDS011;20471;49.680;20.074;2022-09-03T06:53:46;14.78;;;9.08;;
34204;SDS011;20471;49.680;20.074;2022-09-03T06:56:16;15.93;;;9.23;;
34204;SDS011;20471;49.680;20.074;2022-09-03T06:58:53;12.58;;;8.40;;
34204;SDS011;20471;49.680;20.074;2022-09-03T07:01:23;12.93;;;8.45;;
34204;SDS011;20471;49.680;20.074;2022-09-03T07:03:56;11.93;;;8.38;;
34204;SDS011;20471;49.680;20.074;2022-09-03T07:06:31;12.82;;;8.48;;
34204;SDS011;20471;49.680;20.074;2022-09-03T07:09:06;13.62;;;8.90;;
34204;SDS011;20471;49.680;20.074;2022-09-03T07:11:34;13.98;;;8.70;;
34204;SDS011;20471;49.680;20.074;2022-09-03T07:14:04;14.13;;;8.05;;
34204;SDS011;20471;49.680;20.074;2022-09-03T07:16:34;15.70;;;9.18;;
34204;SDS011;20471;49.680;20.074;2022-09-03T07:19:02;16.00;;;8.13;;
34204;SDS011;20471;49.680;20.074;2022-09-03T07:21:32;13.83;;;7.78;;
34204;SDS011;20471;49.680;20.074;2022-09-03T07:24:04;11.83;;;7.93;;
34204;SDS011;20471;49.680;20.074;2022-09-03T07:26:32;11.57;;;8.03;;
34204;SDS011;20471;49.680;20.074;2022-09-03T07:29:01;14.20;;;7.83;;
34204;SDS011;20471;49.680;20.074;2022-09-03T07:31:29;11.57;;;7.72;;
34204;SDS011;20471;49.680;20.074;2022-09-03T07:34:03;10.28;;;6.60;;
34204;SDS011;20471;49.680;20.074;2022-09-03T07:36:40;10.30;;;6.78;;
34204;SDS011;20471;49.680;20.074;2022-09-03T07:39:10;11.75;;;7.10;;
34204;SDS011;20471;49.680;20.074;2022-09-03T07:41:40;14.45;;;7.25;;
34204;SDS011;20471;49.680;20.074;2022-09-03T07:44:09;10.08;;;6.47;;
34204;SDS011;20471;49.680;20.074;2022-09-03T07:46:40;13.22;;;6.55;;
34204;SDS011;20471;49.680;20.074;2022-09-03T07:49:08;8.58;;;6.33;;
34204;SDS011;20471;49.680;20.074;2022-09-03T07:51:36;10.10;;;7.65;;
34204;SDS011;20471;49.680;20.074;2022-09-03T07:54:05;10.60;;;6.87;;
34204;SDS011;20471;49.680;20.074;2022-09-03T07:56:35;12.55;;;6.40;;
34204;SDS011;20471;49.680;20.074;2022-09-03T07:59:04;9.18;;;5.17;;
34204;SDS011;20471;49.680;20.074;2022-09-03T08:01:31;7.92;;;4.55;;
34204;SDS011;20471;49.680;20.074;2022-09-03T08:04:00;8.60;;;5.45;;
34204;SDS011;20471;49.680;20.074;2022-09-03T08:06:29;8.18;;;5.50;;
34204;SDS011;20471;49.680;20.074;2022-09-03T08:08:56;7.25;;;5.00;;
34204;SDS011;20471;49.680;20.074;2022-09-03T08:11:27;8.93;;;5.53;;
34204;SDS011;20471;49.680;20.074;2022-09-03T08:14:00;7.37;;;5.00;;
34204;SDS011;20471;49.680;20.074;2022-09-03T08:16:28;6.58;;;4.70;;
34204;SDS011;20471;49.680;20.074;2022-09-03T08:19:06;6.35;;;4.50;;
34204;SDS011;20471;49.680;20.074;2022-09-03T08:21:34;8.65;;;4.55;;
34204;SDS011;20471;49.680;20.074;2022-09-03T08:24:01;8.35;;;5.05;;
34204;SDS011;20471;49.680;20.074;2022-09-03T08:26:29;5.92;;;4.22;;
34204;SDS011;20471;49.680;20.074;2022-09-03T08:28:58;6.97;;;4.25;;
34204;SDS011;20471;49.680;20.074;2022-09-03T08:31:26;8.98;;;4.28;;
34204;SDS011;20471;49.680;20.074;2022-09-03T08:33:54;4.22;;;3.58;;
34204;SDS011;20471;49.680;20.074;2022-09-03T08:36:24;7.72;;;4.03;;
34204;SDS011;20471;49.680;20.074;2022-09-03T08:38:54;5.70;;;3.58;;
34204;SDS011;20471;49.680;20.074;2022-09-03T08:47:09;4.83;;;3.37;;
34204;SDS011;20471;49.680;20.074;2022-09-03T08:50:43;6.17;;;3.95;;
34204;SDS011;20471;49.680;20.074;2022-09-03T08:58:35;7.35;;;3.70;;
34204;SDS011;20471;49.680;20.074;2022-09-03T09:10:19;7.22;;;3.30;;
34204;SDS011;20471;49.680;20.074;2022-09-03T09:22:10;3.62;;;2.95;;
34204;SDS011;20471;49.680;20.074;2022-09-03T09:24:42;6.90;;;4.17;;
34204;SDS011;20471;49.680;20.074;2022-09-03T09:27:16;4.78;;;3.17;;
34204;SDS011;20471;49.680;20.074;2022-09-03T09:29:47;4.22;;;3.20;;
34204;SDS011;20471;49.680;20.074;2022-09-03T09:34:44;4.60;;;2.95;;
34204;SDS011;20471;49.680;20.074;2022-09-03T09:37:12;4.15;;;2.90;;
34204;SDS011;20471;49.680;20.074;2022-09-03T09:39:52;3.45;;;2.70;;
34204;SDS011;20471;49.680;20.074;2022-09-03T09:42:22;4.17;;;3.10;;
34204;SDS011;20471;49.680;20.074;2022-09-03T09:44:50;5.87;;;3.27;;
34204;SDS011;20471;49.680;20.074;2022-09-03T09:49:58;3.47;;;2.87;;
34204;SDS011;20471;49.680;20.074;2022-09-03T09:52:29;6.37;;;3.00;;
34204;SDS011;20471;49.680;20.074;2022-09-03T09:55:10;8.30;;;3.37;;
34204;SDS011;20471;49.680;20.074;2022-09-03T09:57:37;4.80;;;3.20;;
34204;SDS011;20471;49.680;20.074;2022-09-03T10:00:10;4.85;;;2.70;;
34204;SDS011;20471;49.680;20.074;2022-09-03T10:02:39;3.75;;;2.27;;
34204;SDS011;20471;49.680;20.074;2022-09-03T10:05:20;4.10;;;2.65;;
34204;SDS011;20471;49.680;20.074;2022-09-03T10:08:03;4.35;;;2.58;;
34204;SDS011;20471;49.680;20.074;2022-09-03T10:10:35;4.92;;;3.02;;
34204;SDS011;20471;49.680;20.074;2022-09-03T10:13:11;4.03;;;2.98;;
34204;SDS011;20471;49.680;20.074;2022-09-03T10:15:46;4.35;;;3.33;;
34204;SDS011;20471;49.680;20.074;2022-09-03T10:19:03;3.85;;;3.02;;
34204;SDS011;20471;49.680;20.074;2022-09-03T10:26:47;3.50;;;2.22;;
34204;SDS011;20471;49.680;20.074;2022-09-03T10:29:16;2.87;;;2.35;;
34204;SDS011;20471;49.680;20.074;2022-09-03T10:34:53;4.03;;;2.50;;
34204;SDS011;20471;49.680;20.074;2022-09-03T10:46:15;2.52;;;2.25;;
34204;SDS011;20471;49.680;20.074;2022-09-03T10:51:49;2.83;;;2.45;;
34204;SDS011;20471;49.680;20.074;2022-09-03T11:00:13;3.12;;;2.50;;
34204;SDS011;20471;49.680;20.074;2022-09-03T11:05:30;2.17;;;1.98;;
34204;SDS011;20471;49.680;20.074;2022-09-03T11:08:22;2.92;;;2.25;;
34204;SDS011;20471;49.680;20.074;2022-09-03T11:11:08;3.40;;;2.17;;
34204;SDS011;20471;49.680;20.074;2022-09-03T11:13:45;2.80;;;2.52;;
34204;SDS011;20471;49.680;20.074;2022-09-03T11:16:36;5.87;;;2.50;;
34204;SDS011;20471;49.680;20.074;2022-09-03T11:19:18;5.30;;;2.90;;
34204;SDS011;20471;49.680;20.074;2022-09-03T11:21:49;4.87;;;2.70;;
34204;SDS011;20471;49.680;20.074;2022-09-03T11:24:21;3.58;;;2.65;;
34204;SDS011;20471;49.680;20.074;2022-09-03T11:32:33;3.22;;;2.77;;
34204;SDS011;20471;49.680;20.074;2022-09-03T11:37:59;3.77;;;2.85;;
34204;SDS011;20471;49.680;20.074;2022-09-03T11:40:35;3.02;;;2.72;;
34204;SDS011;20471;49.680;20.074;2022-09-03T11:43:12;4.28;;;3.25;;
34204;SDS011;20471;49.680;20.074;2022-09-03T11:48:50;3.45;;;3.10;;
34204;SDS011;20471;49.680;20.074;2022-09-03T11:56:46;3.42;;;3.12;;
34204;SDS011;20471;49.680;20.074;2022-09-03T11:59:25;4.30;;;3.12;;
34204;SDS011;20471;49.680;20.074;2022-09-03T12:01:51;4.20;;;3.80;;
34204;SDS011;20471;49.680;20.074;2022-09-03T12:04:24;13.25;;;7.72;;
34204;SDS011;20471;49.680;20.074;2022-09-03T12:09:46;21.45;;;12.60;;
34204;SDS011;20471;49.680;20.074;2022-09-03T12:18:02;3.75;;;3.35;;
34204;SDS011;20471;49.680;20.074;2022-09-03T12:20:44;4.62;;;3.50;;
34204;SDS011;20471;49.680;20.074;2022-09-03T12:23:13;4.45;;;3.70;;
34204;SDS011;20471;49.680;20.074;2022-09-03T12:26:13;4.85;;;3.60;;
34204;SDS011;20471;49.680;20.074;2022-09-03T12:28:49;3.92;;;3.52;;
34204;SDS011;20471;49.680;20.074;2022-09-03T12:31:23;4.50;;;3.67;;
34204;SDS011;20471;49.680;20.074;2022-09-03T12:34:02;7.87;;;4.25;;
34204;SDS011;20471;49.680;20.074;2022-09-03T12:36:41;5.17;;;3.77;;
34204;SDS011;20471;49.680;20.074;2022-09-03T12:39:07;4.33;;;3.92;;
34204;SDS011;20471;49.680;20.074;2022-09-03T12:41:45;6.40;;;4.35;;
34204;SDS011;20471;49.680;20.074;2022-09-03T12:44:27;4.87;;;3.70;;
34204;SDS011;20471;49.680;20.074;2022-09-03T12:47:09;5.55;;;3.30;;
34204;SDS011;20471;49.680;20.074;2022-09-03T12:49:45;4.58;;;3.70;;
34204;SDS011;20471;49.680;20.074;2022-09-03T12:52:33;3.77;;;3.40;;
34204;SDS011;20471;49.680;20.074;2022-09-03T12:54:59;4.28;;;3.50;;
34204;SDS011;20471;49.680;20.074;2022-09-03T12:57:38;6.40;;;3.62;;
34204;SDS011;20471;49.680;20.074;2022-09-03T13:00:06;5.33;;;3.60;;
34204;SDS011;20471;49.680;20.074;2022-09-03T13:05:24;4.10;;;3.52;;
34204;SDS011;20471;49.680;20.074;2022-09-03T13:07:51;3.95;;;3.58;;
34204;SDS011;20471;49.680;20.074;2022-09-03T13:10:25;4.75;;;3.58;;
34204;SDS011;20471;49.680;20.074;2022-09-03T13:13:02;3.58;;;3.10;;
34204;SDS011;20471;49.680;20.074;2022-09-03T13:16:01;5.60;;;3.55;;
34204;SDS011;20471;49.680;20.074;2022-09-03T13:26:55;8.48;;;3.60;;
34204;SDS011;20471;49.680;20.074;2022-09-03T13:50:36;3.00;;;2.70;;
34204;SDS011;20471;49.680;20.074;2022-09-03T13:53:03;3.40;;;3.10;;
34204;SDS011;20471;49.680;20.074;2022-09-03T13:55:52;3.27;;;2.98;;
34204;SDS011;20471;49.680;20.074;2022-09-03T13:58:28;4.58;;;3.22;;
34204;SDS011;20471;49.680;20.074;2022-09-03T14:03:53;3.25;;;2.95;;
34204;SDS011;20471;49.680;20.074;2022-09-03T14:06:41;4.12;;;3.12;;
34204;SDS011;20471;49.680;20.074;2022-09-03T14:12:39;4.75;;;3.47;;
34204;SDS011;20471;49.680;20.074;2022-09-03T14:26:27;5.08;;;3.60;;
34204;SDS011;20471;49.680;20.074;2022-09-03T14:31:46;4.03;;;3.20;;
34204;SDS011;20471;49.680;20.074;2022-09-03T14:40:41;3.85;;;3.40;;
34204;SDS011;20471;49.680;20.074;2022-09-03T14:52:18;5.80;;;3.75;;
34204;SDS011;20471;49.680;20.074;2022-09-03T15:00:47;8.53;;;4.53;;
34204;SDS011;20471;49.680;20.074;2022-09-03T15:03:39;7.62;;;3.98;;
34204;SDS011;20471;49.680;20.074;2022-09-03T15:09:21;5.20;;;4.40;;
34204;SDS011;20471;49.680;20.074;2022-09-03T15:15:00;6.08;;;4.83;;
34204;SDS011;20471;49.680;20.074;2022-09-03T15:17:50;6.12;;;4.25;;
34204;SDS011;20471;49.680;20.074;2022-09-03T15:23:40;5.40;;;4.67;;
34204;SDS011;20471;49.680;20.074;2022-09-03T15:35:09;9.08;;;6.35;;
34204;SDS011;20471;49.680;20.074;2022-09-03T15:37:59;10.78;;;8.23;;
34204;SDS011;20471;49.680;20.074;2022-09-03T15:43:08;6.78;;;5.47;;
34204;SDS011;20471;49.680;20.074;2022-09-03T15:46:27;7.53;;;4.97;;
34204;SDS011;20471;49.680;20.074;2022-09-03T15:51:22;5.97;;;4.40;;
34204;SDS011;20471;49.680;20.074;2022-09-03T15:54:12;7.87;;;5.47;;
34204;SDS011;20471;49.680;20.074;2022-09-03T16:05:43;7.60;;;5.80;;
34204;SDS011;20471;49.680;20.074;2022-09-03T16:14:02;8.35;;;5.58;;
34204;SDS011;20471;49.680;20.074;2022-09-03T16:25:23;8.10;;;5.75;;
34204;SDS011;20471;49.680;20.074;2022-09-03T16:39:30;7.28;;;5.33;;
34204;SDS011;20471;49.680;20.074;2022-09-03T16:48:42;7.75;;;5.55;;
34204;SDS011;20471;49.680;20.074;2022-09-03T16:51:23;7.90;;;5.95;;
34204;SDS011;20471;49.680;20.074;2022-09-03T16:56:58;7.30;;;5.50;;
34204;SDS011;20471;49.680;20.074;2022-09-03T16:59:48;9.65;;;5.20;;
34204;SDS011;20471;49.680;20.074;2022-09-03T17:02:46;8.63;;;6.33;;
34204;SDS011;20471;49.680;20.074;2022-09-03T17:08:40;9.43;;;6.22;;
34204;SDS011;20471;49.680;20.074;2022-09-03T17:25:48;9.30;;;7.42;;
34204;SDS011;20471;49.680;20.074;2022-09-03T17:31:45;13.25;;;9.60;;
34204;SDS011;20471;49.680;20.074;2022-09-03T17:34:29;12.85;;;8.43;;
34204;SDS011;20471;49.680;20.074;2022-09-03T17:47:59;27.02;;;14.68;;
34204;SDS011;20471;49.680;20.074;2022-09-03T17:51:14;18.75;;;8.95;;
34204;SDS011;20471;49.680;20.074;2022-09-03T17:53:39;16.35;;;9.53;;
34204;SDS011;20471;49.680;20.074;2022-09-03T17:59:41;15.53;;;8.93;;
34204;SDS011;20471;49.680;20.074;2022-09-03T18:05:29;119.72;;;56.90;;
34204;SDS011;20471;49.680;20.074;2022-09-03T18:08:19;84.25;;;38.42;;
34204;SDS011;20471;49.680;20.074;2022-09-03T18:13:49;41.80;;;20.52;;
34204;SDS011;20471;49.680;20.074;2022-09-03T18:16:40;90.38;;;37.80;;
34204;SDS011;20471;49.680;20.074;2022-09-03T18:22:19;47.53;;;22.35;;
34204;SDS011;20471;49.680;20.074;2022-09-03T18:25:09;21.75;;;11.88;;
34204;SDS011;20471;49.680;20.074;2022-09-03T18:27:59;15.00;;;10.25;;
34204;SDS011;20471;49.680;20.074;2022-09-03T18:30:48;17.23;;;9.78;;
34204;SDS011;20471;49.680;20.074;2022-09-03T18:33:33;18.35;;;9.43;;
34204;SDS011;20471;49.680;20.074;2022-09-03T18:36:18;14.55;;;9.38;;
34204;SDS011;20471;49.680;20.074;2022-09-03T18:45:28;13.62;;;9.33;;
34204;SDS011;20471;49.680;20.074;2022-09-03T18:48:31;12.55;;;8.63;;
34204;SDS011;20471;49.680;20.074;2022-09-03T18:51:32;13.43;;;9.90;;
34204;SDS011;20471;49.680;20.074;2022-09-03T19:00:35;17.25;;;10.15;;
34204;SDS011;20471;49.680;20.074;2022-09-03T19:03:45;18.00;;;10.78;;
34204;SDS011;20471;49.680;20.074;2022-09-03T19:09:47;14.07;;;10.43;;
34204;SDS011;20471;49.680;20.074;2022-09-03T19:16:12;17.10;;;11.78;;
34204;SDS011;20471;49.680;20.074;2022-09-03T19:22:15;15.72;;;12.00;;
34204;SDS011;20471;49.680;20.074;2022-09-03T19:25:10;17.73;;;10.95;;
34204;SDS011;20471;49.680;20.074;2022-09-03T19:37:51;17.85;;;12.73;;
34204;SDS011;20471;49.680;20.074;2022-09-03T19:46:49;23.00;;;14.40;;
34204;SDS011;20471;49.680;20.074;2022-09-03T19:52:56;24.90;;;15.03;;
34204;SDS011;20471;49.680;20.074;2022-09-03T19:55:48;19.35;;;13.62;;
34204;SDS011;20471;49.680;20.074;2022-09-03T19:58:44;25.95;;;14.33;;
34204;SDS011;20471;49.680;20.074;2022-09-03T20:01:40;24.25;;;14.25;;
34204;SDS011;20471;49.680;20.074;2022-09-03T20:04:31;22.27;;;14.25;;
34204;SDS011;20471;49.680;20.074;2022-09-03T20:07:23;21.45;;;13.93;;
34204;SDS011;20471;49.680;20.074;2022-09-03T20:10:09;21.35;;;13.35;;
34204;SDS011;20471;49.680;20.074;2022-09-03T20:21:19;17.40;;;10.63;;
34204;SDS011;20471;49.680;20.074;2022-09-03T20:27:00;15.10;;;10.20;;
34204;SDS011;20471;49.680;20.074;2022-09-03T20:41:23;16.25;;;11.00;;
34204;SDS011;20471;49.680;20.074;2022-09-03T20:55:56;16.73;;;11.75;;
34204;SDS011;20471;49.680;20.074;2022-09-03T21:01:27;18.00;;;11.15;;
34204;SDS011;20471;49.680;20.074;2022-09-03T21:09:29;19.30;;;11.30;;
34204;SDS011;20471;49.680;20.074;2022-09-03T21:12:26;20.15;;;12.33;;
34204;SDS011;20471;49.680;20.074;2022-09-03T21:14:59;19.45;;;12.13;;
34204;SDS011;20471;49.680;20.074;2022-09-03T21:20:50;20.27;;;12.13;;
34204;SDS011;20471;49.680;20.074;2022-09-03T21:23:44;17.60;;;12.13;;
34204;SDS011;20471;49.680;20.074;2022-09-03T21:26:26;17.30;;;12.82;;
34204;SDS011;20471;49.680;20.074;2022-09-03T21:34:43;21.73;;;12.40;;
34204;SDS011;20471;49.680;20.074;2022-09-03T21:37:17;19.90;;;11.63;;
34204;SDS011;20471;49.680;20.074;2022-09-03T21:39:50;14.45;;;9.35;;
34204;SDS011;20471;49.680;20.074;2022-09-03T21:45:35;11.48;;;8.95;;
34204;SDS011;20471;49.680;20.074;2022-09-03T21:48:25;11.95;;;8.58;;
34204;SDS011;20471;49.680;20.074;2022-09-03T21:51:02;11.08;;;8.23;;
34204;SDS011;20471;49.680;20.074;2022-09-03T22:01:50;11.80;;;8.33;;
34204;SDS011;20471;49.680;20.074;2022-09-03T22:04:43;10.35;;;8.28;;
34204;SDS011;20471;49.680;20.074;2022-09-03T22:10:10;13.43;;;9.25;;
34204;SDS011;20471;49.680;20.074;2022-09-03T22:16:08;11.90;;;8.40;;
34204;SDS011;20471;49.680;20.074;2022-09-03T22:18:53;13.70;;;8.90;;
34204;SDS011;20471;49.680;20.074;2022-09-03T22:23:59;11.22;;;8.05;;
34204;SDS011;20471;49.680;20.074;2022-09-03T22:32:25;9.43;;;7.53;;
34204;SDS011;20471;49.680;20.074;2022-09-03T22:35:24;9.00;;;7.62;;
34204;SDS011;20471;49.680;20.074;2022-09-03T22:44:40;12.93;;;7.92;;
34204;SDS011;20471;49.680;20.074;2022-09-03T22:55:40;9.40;;;7.62;;
34204;SDS011;20471;49.680;20.074;2022-09-03T22:58:12;10.50;;;6.90;;
34204;SDS011;20471;49.680;20.074;2022-09-03T23:00:53;9.25;;;7.47;;
34204;SDS011;20471;49.680;20.074;2022-09-03T23:03:41;9.30;;;7.37;;
34204;SDS011;20471;49.680;20.074;2022-09-03T23:06:16;8.45;;;7.28;;
34204;SDS011;20471;49.680;20.074;2022-09-03T23:08:44;9.43;;;7.03;;
34204;SDS011;20471;49.680;20.074;2022-09-03T23:14:08;8.00;;;6.55;;
34204;SDS011;20471;49.680;20.074;2022-09-03T23:16:57;9.38;;;6.55;;
34204;SDS011;20471;49.680;20.074;2022-09-03T23:19:53;9.85;;;7.42;;